sensor_id;sensor_type;location;lat;lon;timestamp;P1;durP1;ratioP1;P2;durP2;ratioP2
6013;SDS011;3035;49.928;8.410;2022-12-08T00:01:08;16.70;;;9.00;;
6013;SDS011;3035;49.928;8.410;2022-12-08T00:03:36;18.83;;;9.20;;
6013;SDS011;3035;49.928;8.410;2022-12-08T00:06:04;22.43;;;10.07;;
6013;SDS011;3035;49.928;8.410;2022-12-08T00:08:37;16.00;;;9.00;;
6013;SDS011;3035;49.928;8.410;2022-12-08T00:11:14;24.13;;;10.77;;
6013;SDS011;3035;49.928;8.410;2022-12-08T00:13:39;20.93;;;9.90;;
6013;SDS011;3035;49.928;8.410;2022-12-08T00:16:08;18.20;;;8.73;;
6013;SDS011;3035;49.928;8.410;2022-12-08T00:18:37;19.97;;;11.23;;
6013;SDS011;3035;49.928;8.410;2022-12-08T00:21:05;19.73;;;10.33;;
6013;SDS011;3035;49.928;8.410;2022-12-08T00:23:34;19.20;;;9.73;;
6013;SDS011;3035;49.928;8.410;2022-12-08T00:26:03;21.57;;;9.80;;
6013;SDS011;3035;49.928;8.410;2022-12-08T00:28:31;21.40;;;10.10;;
6013;SDS011;3035;49.928;8.410;2022-12-08T00:31:00;15.40;;;8.73;;
6013;SDS011;3035;49.928;8.410;2022-12-08T00:33:27;18.43;;;10.97;;
6013;SDS011;3035;49.928;8.410;2022-12-08T00:35:56;20.43;;;11.17;;
6013;SDS011;3035;49.928;8.410;2022-12-08T00:38:24;18.80;;;9.90;;
6013;SDS011;3035;49.928;8.410;2022-12-08T00:40:52;21.00;;;10.10;;
6013;SDS011;3035;49.928;8.410;2022-12-08T00:43:20;16.90;;;9.30;;
6013;SDS011;3035;49.928;8.410;2022-12-08T00:45:49;22.80;;;10.17;;
6013;SDS011;3035;49.928;8.410;2022-12-08T00:48:17;24.73;;;11.70;;
6013;SDS011;3035;49.928;8.410;2022-12-08T00:50:46;20.10;;;10.90;;
6013;SDS011;3035;49.928;8.410;2022-12-08T00:53:15;16.27;;;9.70;;
6013;SDS011;3035;49.928;8.410;2022-12-08T00:55:43;23.67;;;10.20;;
6013;SDS011;3035;49.928;8.410;2022-12-08T00:58:12;21.00;;;11.70;;
6013;SDS011;3035;49.928;8.410;2022-12-08T01:00:41;20.87;;;10.07;;
6013;SDS011;3035;49.928;8.410;2022-12-08T01:03:09;19.10;;;10.93;;
6013;SDS011;3035;49.928;8.410;2022-12-08T01:05:37;19.60;;;10.73;;
6013;SDS011;3035;49.928;8.410;2022-12-08T01:08:06;22.07;;;10.80;;
6013;SDS011;3035;49.928;8.410;2022-12-08T01:10:34;19.47;;;10.47;;
6013;SDS011;3035;49.928;8.410;2022-12-08T01:13:02;18.33;;;10.40;;
6013;SDS011;3035;49.928;8.410;2022-12-08T01:15:31;17.23;;;10.00;;
6013;SDS011;3035;49.928;8.410;2022-12-08T01:17:59;22.37;;;10.90;;
6013;SDS011;3035;49.928;8.410;2022-12-08T01:20:27;33.43;;;11.80;;
6013;SDS011;3035;49.928;8.410;2022-12-08T01:22:56;17.50;;;9.90;;
6013;SDS011;3035;49.928;8.410;2022-12-08T01:25:24;17.60;;;9.43;;
6013;SDS011;3035;49.928;8.410;2022-12-08T01:27:53;20.70;;;9.83;;
6013;SDS011;3035;49.928;8.410;2022-12-08T01:30:21;17.93;;;10.20;;
6013;SDS011;3035;49.928;8.410;2022-12-08T01:32:49;18.60;;;10.40;;
6013;SDS011;3035;49.928;8.410;2022-12-08T01:35:18;19.23;;;10.97;;
6013;SDS011;3035;49.928;8.410;2022-12-08T01:37:46;19.43;;;10.43;;
6013;SDS011;3035;49.928;8.410;2022-12-08T01:40:14;24.30;;;11.73;;
6013;SDS011;3035;49.928;8.410;2022-12-08T01:42:42;24.43;;;10.73;;
6013;SDS011;3035;49.928;8.410;2022-12-08T01:45:13;18.33;;;10.50;;
6013;SDS011;3035;49.928;8.410;2022-12-08T01:47:53;22.43;;;11.27;;
6013;SDS011;3035;49.928;8.410;2022-12-08T01:50:20;18.83;;;9.87;;
6013;SDS011;3035;49.928;8.410;2022-12-08T01:52:50;19.10;;;10.90;;
6013;SDS011;3035;49.928;8.410;2022-12-08T01:55:19;21.80;;;11.53;;
6013;SDS011;3035;49.928;8.410;2022-12-08T01:57:48;17.90;;;9.90;;
6013;SDS011;3035;49.928;8.410;2022-12-08T02:00:17;22.83;;;10.40;;
6013;SDS011;3035;49.928;8.410;2022-12-08T02:02:48;21.60;;;11.30;;
6013;SDS011;3035;49.928;8.410;2022-12-08T02:05:30;17.90;;;10.60;;
6013;SDS011;3035;49.928;8.410;2022-12-08T02:07:59;24.87;;;11.83;;
6013;SDS011;3035;49.928;8.410;2022-12-08T02:10:28;16.67;;;10.43;;
6013;SDS011;3035;49.928;8.410;2022-12-08T02:12:56;22.10;;;12.37;;
6013;SDS011;3035;49.928;8.410;2022-12-08T02:15:29;20.83;;;10.80;;
6013;SDS011;3035;49.928;8.410;2022-12-08T02:18:01;23.83;;;11.83;;
6013;SDS011;3035;49.928;8.410;2022-12-08T02:20:37;19.40;;;10.70;;
6013;SDS011;3035;49.928;8.410;2022-12-08T02:23:17;19.40;;;11.13;;
6013;SDS011;3035;49.928;8.410;2022-12-08T02:26:00;20.70;;;11.30;;
6013;SDS011;3035;49.928;8.410;2022-12-08T02:28:40;20.87;;;12.23;;
6013;SDS011;3035;49.928;8.410;2022-12-08T02:34:02;28.33;;;12.23;;
6013;SDS011;3035;49.928;8.410;2022-12-08T02:39:27;19.60;;;10.90;;
6013;SDS011;3035;49.928;8.410;2022-12-08T02:42:19;25.27;;;12.60;;
6013;SDS011;3035;49.928;8.410;2022-12-08T02:44:47;28.07;;;12.10;;
6013;SDS011;3035;49.928;8.410;2022-12-08T02:47:18;21.50;;;11.87;;
6013;SDS011;3035;49.928;8.410;2022-12-08T02:49:46;22.07;;;11.47;;
6013;SDS011;3035;49.928;8.410;2022-12-08T02:55:15;18.77;;;11.17;;
6013;SDS011;3035;49.928;8.410;2022-12-08T02:57:55;23.23;;;12.07;;
6013;SDS011;3035;49.928;8.410;2022-12-08T03:03:43;18.90;;;11.50;;
6013;SDS011;3035;49.928;8.410;2022-12-08T03:09:08;24.73;;;12.63;;
6013;SDS011;3035;49.928;8.410;2022-12-08T03:11:38;20.33;;;10.80;;
6013;SDS011;3035;49.928;8.410;2022-12-08T03:14:09;24.63;;;11.80;;
6013;SDS011;3035;49.928;8.410;2022-12-08T03:16:38;22.07;;;10.43;;
6013;SDS011;3035;49.928;8.410;2022-12-08T03:19:10;22.63;;;11.60;;
6013;SDS011;3035;49.928;8.410;2022-12-08T03:21:38;23.53;;;11.23;;
6013;SDS011;3035;49.928;8.410;2022-12-08T03:24:06;24.13;;;10.53;;
6013;SDS011;3035;49.928;8.410;2022-12-08T03:26:38;26.30;;;12.80;;
6013;SDS011;3035;49.928;8.410;2022-12-08T03:29:16;25.80;;;11.97;;
6013;SDS011;3035;49.928;8.410;2022-12-08T03:31:46;24.60;;;10.20;;
6013;SDS011;3035;49.928;8.410;2022-12-08T03:34:12;23.83;;;10.83;;
6013;SDS011;3035;49.928;8.410;2022-12-08T03:36:40;20.33;;;11.83;;
6013;SDS011;3035;49.928;8.410;2022-12-08T03:39:09;18.33;;;11.20;;
6013;SDS011;3035;49.928;8.410;2022-12-08T03:41:37;23.40;;;11.27;;
6013;SDS011;3035;49.928;8.410;2022-12-08T03:44:06;21.30;;;12.00;;
6013;SDS011;3035;49.928;8.410;2022-12-08T03:46:34;24.10;;;11.67;;
6013;SDS011;3035;49.928;8.410;2022-12-08T03:49:02;20.30;;;11.37;;
6013;SDS011;3035;49.928;8.410;2022-12-08T03:51:31;23.50;;;11.40;;
6013;SDS011;3035;49.928;8.410;2022-12-08T03:53:59;24.27;;;11.27;;
6013;SDS011;3035;49.928;8.410;2022-12-08T03:56:30;23.90;;;11.53;;
6013;SDS011;3035;49.928;8.410;2022-12-08T03:58:58;24.60;;;12.40;;
6013;SDS011;3035;49.928;8.410;2022-12-08T04:01:27;21.20;;;11.23;;
6013;SDS011;3035;49.928;8.410;2022-12-08T04:03:55;22.93;;;11.20;;
6013;SDS011;3035;49.928;8.410;2022-12-08T04:06:24;22.60;;;10.27;;
6013;SDS011;3035;49.928;8.410;2022-12-08T04:08:52;21.47;;;10.27;;
6013;SDS011;3035;49.928;8.410;2022-12-08T04:11:20;24.57;;;11.30;;
6013;SDS011;3035;49.928;8.410;2022-12-08T04:13:48;25.07;;;11.80;;
6013;SDS011;3035;49.928;8.410;2022-12-08T04:16:19;15.93;;;9.40;;
6013;SDS011;3035;49.928;8.410;2022-12-08T04:18:47;20.70;;;10.27;;
6013;SDS011;3035;49.928;8.410;2022-12-08T04:21:15;19.20;;;10.70;;
6013;SDS011;3035;49.928;8.410;2022-12-08T04:23:43;19.83;;;10.00;;
6013;SDS011;3035;49.928;8.410;2022-12-08T04:26:11;17.73;;;9.30;;
6013;SDS011;3035;49.928;8.410;2022-12-08T04:28:40;25.43;;;11.07;;
6013;SDS011;3035;49.928;8.410;2022-12-08T04:31:09;21.53;;;9.97;;
6013;SDS011;3035;49.928;8.410;2022-12-08T04:33:38;17.03;;;9.40;;
6013;SDS011;3035;49.928;8.410;2022-12-08T04:36:06;14.80;;;9.53;;
6013;SDS011;3035;49.928;8.410;2022-12-08T04:38:36;24.37;;;9.97;;
6013;SDS011;3035;49.928;8.410;2022-12-08T04:41:04;18.70;;;9.00;;
6013;SDS011;3035;49.928;8.410;2022-12-08T04:43:32;14.30;;;8.37;;
6013;SDS011;3035;49.928;8.410;2022-12-08T04:46:00;18.97;;;8.80;;
6013;SDS011;3035;49.928;8.410;2022-12-08T04:48:29;19.23;;;9.67;;
6013;SDS011;3035;49.928;8.410;2022-12-08T04:50:57;12.80;;;8.80;;
6013;SDS011;3035;49.928;8.410;2022-12-08T04:53:25;13.90;;;8.10;;
6013;SDS011;3035;49.928;8.410;2022-12-08T04:55:53;15.70;;;8.33;;
6013;SDS011;3035;49.928;8.410;2022-12-08T04:58:21;22.03;;;10.30;;
6013;SDS011;3035;49.928;8.410;2022-12-08T05:00:50;16.77;;;9.10;;
6013;SDS011;3035;49.928;8.410;2022-12-08T05:03:19;18.77;;;9.77;;
6013;SDS011;3035;49.928;8.410;2022-12-08T05:05:47;19.17;;;8.60;;
6013;SDS011;3035;49.928;8.410;2022-12-08T05:08:15;15.37;;;7.83;;
6013;SDS011;3035;49.928;8.410;2022-12-08T05:10:44;14.90;;;8.53;;
6013;SDS011;3035;49.928;8.410;2022-12-08T05:13:12;17.47;;;8.67;;
6013;SDS011;3035;49.928;8.410;2022-12-08T05:15:40;13.67;;;8.50;;
6013;SDS011;3035;49.928;8.410;2022-12-08T05:18:09;22.50;;;10.47;;
6013;SDS011;3035;49.928;8.410;2022-12-08T05:20:37;15.77;;;8.73;;
6013;SDS011;3035;49.928;8.410;2022-12-08T05:23:06;23.30;;;10.70;;
6013;SDS011;3035;49.928;8.410;2022-12-08T05:25:34;15.23;;;8.23;;
6013;SDS011;3035;49.928;8.410;2022-12-08T05:28:03;24.20;;;9.33;;
6013;SDS011;3035;49.928;8.410;2022-12-08T05:30:31;15.27;;;9.83;;
6013;SDS011;3035;49.928;8.410;2022-12-08T05:33:00;15.30;;;9.17;;
6013;SDS011;3035;49.928;8.410;2022-12-08T05:35:28;19.53;;;9.30;;
6013;SDS011;3035;49.928;8.410;2022-12-08T05:37:56;15.93;;;10.23;;
6013;SDS011;3035;49.928;8.410;2022-12-08T05:40:25;17.17;;;9.70;;
6013;SDS011;3035;49.928;8.410;2022-12-08T05:42:54;22.13;;;9.17;;
6013;SDS011;3035;49.928;8.410;2022-12-08T05:45:22;14.10;;;8.83;;
6013;SDS011;3035;49.928;8.410;2022-12-08T05:47:51;20.47;;;9.67;;
6013;SDS011;3035;49.928;8.410;2022-12-08T05:50:18;17.93;;;9.63;;
6013;SDS011;3035;49.928;8.410;2022-12-08T05:52:47;21.83;;;10.27;;
6013;SDS011;3035;49.928;8.410;2022-12-08T05:55:16;16.77;;;8.43;;
6013;SDS011;3035;49.928;8.410;2022-12-08T05:57:44;13.87;;;8.67;;
6013;SDS011;3035;49.928;8.410;2022-12-08T06:00:12;21.13;;;9.27;;
6013;SDS011;3035;49.928;8.410;2022-12-08T06:02:41;18.27;;;9.77;;
6013;SDS011;3035;49.928;8.410;2022-12-08T06:05:09;18.33;;;8.57;;
6013;SDS011;3035;49.928;8.410;2022-12-08T06:07:38;15.07;;;8.60;;
6013;SDS011;3035;49.928;8.410;2022-12-08T06:10:07;21.50;;;9.40;;
6013;SDS011;3035;49.928;8.410;2022-12-08T06:12:37;15.13;;;9.00;;
6013;SDS011;3035;49.928;8.410;2022-12-08T06:15:05;18.43;;;10.00;;
6013;SDS011;3035;49.928;8.410;2022-12-08T06:17:35;19.63;;;9.43;;
6013;SDS011;3035;49.928;8.410;2022-12-08T06:20:04;16.90;;;9.50;;
6013;SDS011;3035;49.928;8.410;2022-12-08T06:22:35;13.63;;;8.57;;
6013;SDS011;3035;49.928;8.410;2022-12-08T06:25:04;17.77;;;8.77;;
6013;SDS011;3035;49.928;8.410;2022-12-08T06:27:33;15.37;;;8.00;;
6013;SDS011;3035;49.928;8.410;2022-12-08T06:30:01;13.57;;;7.57;;
6013;SDS011;3035;49.928;8.410;2022-12-08T06:32:30;16.23;;;8.77;;
6013;SDS011;3035;49.928;8.410;2022-12-08T06:34:59;16.00;;;9.03;;
6013;SDS011;3035;49.928;8.410;2022-12-08T06:37:27;13.87;;;8.60;;
6013;SDS011;3035;49.928;8.410;2022-12-08T06:39:55;15.07;;;8.40;;
6013;SDS011;3035;49.928;8.410;2022-12-08T06:42:24;15.43;;;8.00;;
6013;SDS011;3035;49.928;8.410;2022-12-08T06:44:57;14.83;;;8.10;;
6013;SDS011;3035;49.928;8.410;2022-12-08T06:47:26;13.67;;;8.00;;
6013;SDS011;3035;49.928;8.410;2022-12-08T06:49:54;12.23;;;8.00;;
6013;SDS011;3035;49.928;8.410;2022-12-08T06:52:22;13.87;;;7.87;;
6013;SDS011;3035;49.928;8.410;2022-12-08T06:54:50;14.00;;;8.17;;
6013;SDS011;3035;49.928;8.410;2022-12-08T06:57:18;13.47;;;8.17;;
6013;SDS011;3035;49.928;8.410;2022-12-08T06:59:47;16.60;;;8.33;;
6013;SDS011;3035;49.928;8.410;2022-12-08T07:02:15;14.50;;;8.00;;
6013;SDS011;3035;49.928;8.410;2022-12-08T07:04:44;12.80;;;8.03;;
6013;SDS011;3035;49.928;8.410;2022-12-08T07:07:13;11.33;;;7.27;;
6013;SDS011;3035;49.928;8.410;2022-12-08T07:09:41;19.00;;;8.47;;
6013;SDS011;3035;49.928;8.410;2022-12-08T07:12:09;15.73;;;7.83;;
6013;SDS011;3035;49.928;8.410;2022-12-08T07:14:37;12.33;;;7.93;;
6013;SDS011;3035;49.928;8.410;2022-12-08T07:17:05;12.83;;;7.07;;
6013;SDS011;3035;49.928;8.410;2022-12-08T07:19:34;12.53;;;8.07;;
6013;SDS011;3035;49.928;8.410;2022-12-08T07:22:03;14.20;;;7.27;;
6013;SDS011;3035;49.928;8.410;2022-12-08T07:24:32;10.60;;;6.73;;
6013;SDS011;3035;49.928;8.410;2022-12-08T07:27:01;11.50;;;7.67;;
6013;SDS011;3035;49.928;8.410;2022-12-08T07:29:29;14.60;;;8.60;;
6013;SDS011;3035;49.928;8.410;2022-12-08T07:31:57;17.03;;;8.30;;
6013;SDS011;3035;49.928;8.410;2022-12-08T07:34:26;18.37;;;7.60;;
6013;SDS011;3035;49.928;8.410;2022-12-08T07:36:54;18.33;;;8.27;;
6013;SDS011;3035;49.928;8.410;2022-12-08T07:39:24;19.57;;;7.03;;
6013;SDS011;3035;49.928;8.410;2022-12-08T07:41:53;18.00;;;8.80;;
6013;SDS011;3035;49.928;8.410;2022-12-08T07:44:21;13.47;;;8.03;;
6013;SDS011;3035;49.928;8.410;2022-12-08T07:46:49;17.13;;;9.30;;
6013;SDS011;3035;49.928;8.410;2022-12-08T07:49:19;17.17;;;7.20;;
6013;SDS011;3035;49.928;8.410;2022-12-08T07:51:47;15.23;;;8.37;;
6013;SDS011;3035;49.928;8.410;2022-12-08T07:54:16;14.27;;;8.40;;
6013;SDS011;3035;49.928;8.410;2022-12-08T07:56:44;16.90;;;8.40;;
6013;SDS011;3035;49.928;8.410;2022-12-08T07:59:12;16.10;;;8.50;;
6013;SDS011;3035;49.928;8.410;2022-12-08T08:01:42;16.80;;;9.50;;
6013;SDS011;3035;49.928;8.410;2022-12-08T08:04:10;14.97;;;9.50;;
6013;SDS011;3035;49.928;8.410;2022-12-08T08:06:39;15.33;;;8.80;;
6013;SDS011;3035;49.928;8.410;2022-12-08T08:09:07;14.90;;;8.53;;
6013;SDS011;3035;49.928;8.410;2022-12-08T08:11:36;17.70;;;8.93;;
6013;SDS011;3035;49.928;8.410;2022-12-08T08:14:04;17.60;;;10.27;;
6013;SDS011;3035;49.928;8.410;2022-12-08T08:16:32;19.47;;;9.03;;
6013;SDS011;3035;49.928;8.410;2022-12-08T08:19:01;17.53;;;8.47;;
6013;SDS011;3035;49.928;8.410;2022-12-08T08:21:30;14.07;;;8.43;;
6013;SDS011;3035;49.928;8.410;2022-12-08T08:23:58;12.60;;;8.70;;
6013;SDS011;3035;49.928;8.410;2022-12-08T08:26:27;15.33;;;8.67;;
6013;SDS011;3035;49.928;8.410;2022-12-08T08:28:55;14.63;;;7.67;;
6013;SDS011;3035;49.928;8.410;2022-12-08T08:31:24;15.57;;;8.40;;
6013;SDS011;3035;49.928;8.410;2022-12-08T08:33:51;11.87;;;7.13;;
6013;SDS011;3035;49.928;8.410;2022-12-08T08:36:20;22.33;;;9.23;;
6013;SDS011;3035;49.928;8.410;2022-12-08T08:38:48;18.47;;;9.50;;
6013;SDS011;3035;49.928;8.410;2022-12-08T08:41:16;14.40;;;9.20;;
6013;SDS011;3035;49.928;8.410;2022-12-08T08:43:44;16.10;;;8.27;;
6013;SDS011;3035;49.928;8.410;2022-12-08T08:46:12;16.23;;;7.87;;
6013;SDS011;3035;49.928;8.410;2022-12-08T08:48:41;15.43;;;8.83;;
6013;SDS011;3035;49.928;8.410;2022-12-08T08:51:10;15.30;;;9.50;;
6013;SDS011;3035;49.928;8.410;2022-12-08T08:53:37;23.07;;;9.20;;
6013;SDS011;3035;49.928;8.410;2022-12-08T08:56:07;16.80;;;8.17;;
6013;SDS011;3035;49.928;8.410;2022-12-08T08:58:34;16.93;;;8.87;;
6013;SDS011;3035;49.928;8.410;2022-12-08T09:01:03;16.30;;;8.87;;
6013;SDS011;3035;49.928;8.410;2022-12-08T09:03:31;15.17;;;8.60;;
6013;SDS011;3035;49.928;8.410;2022-12-08T09:05:59;15.40;;;9.13;;
6013;SDS011;3035;49.928;8.410;2022-12-08T09:08:27;16.47;;;8.03;;
6013;SDS011;3035;49.928;8.410;2022-12-08T09:10:55;13.60;;;7.23;;
6013;SDS011;3035;49.928;8.410;2022-12-08T09:13:24;26.63;;;8.83;;
6013;SDS011;3035;49.928;8.410;2022-12-08T09:15:53;14.30;;;7.80;;
6013;SDS011;3035;49.928;8.410;2022-12-08T09:18:21;17.50;;;8.40;;
6013;SDS011;3035;49.928;8.410;2022-12-08T09:20:49;11.30;;;6.80;;
6013;SDS011;3035;49.928;8.410;2022-12-08T09:23:18;11.00;;;7.23;;
6013;SDS011;3035;49.928;8.410;2022-12-08T09:25:46;14.50;;;8.53;;
6013;SDS011;3035;49.928;8.410;2022-12-08T09:28:16;15.77;;;8.50;;
6013;SDS011;3035;49.928;8.410;2022-12-08T09:30:44;22.30;;;9.53;;
6013;SDS011;3035;49.928;8.410;2022-12-08T09:33:12;17.60;;;8.80;;
6013;SDS011;3035;49.928;8.410;2022-12-08T09:35:40;19.47;;;9.53;;
6013;SDS011;3035;49.928;8.410;2022-12-08T09:38:09;14.43;;;7.90;;
6013;SDS011;3035;49.928;8.410;2022-12-08T09:40:41;14.27;;;7.27;;
6013;SDS011;3035;49.928;8.410;2022-12-08T09:46:15;14.20;;;8.30;;
6013;SDS011;3035;49.928;8.410;2022-12-08T09:48:47;22.53;;;7.60;;
6013;SDS011;3035;49.928;8.410;2022-12-08T09:51:19;15.70;;;9.00;;
6013;SDS011;3035;49.928;8.410;2022-12-08T09:53:49;16.07;;;8.50;;
6013;SDS011;3035;49.928;8.410;2022-12-08T09:56:18;15.10;;;8.50;;
6013;SDS011;3035;49.928;8.410;2022-12-08T10:01:38;16.93;;;8.97;;
6013;SDS011;3035;49.928;8.410;2022-12-08T10:04:19;12.40;;;8.67;;
6013;SDS011;3035;49.928;8.410;2022-12-08T10:07:02;20.10;;;8.87;;
6013;SDS011;3035;49.928;8.410;2022-12-08T10:09:53;19.33;;;8.70;;
6013;SDS011;3035;49.928;8.410;2022-12-08T10:12:42;18.50;;;8.83;;
6013;SDS011;3035;49.928;8.410;2022-12-08T10:15:21;15.10;;;8.53;;
6013;SDS011;3035;49.928;8.410;2022-12-08T10:18:14;11.97;;;7.47;;
6013;SDS011;3035;49.928;8.410;2022-12-08T10:20:48;13.50;;;7.80;;
6013;SDS011;3035;49.928;8.410;2022-12-08T10:23:19;14.60;;;7.40;;
6013;SDS011;3035;49.928;8.410;2022-12-08T10:25:54;12.33;;;7.47;;
6013;SDS011;3035;49.928;8.410;2022-12-08T10:28:21;13.00;;;8.57;;
6013;SDS011;3035;49.928;8.410;2022-12-08T10:30:49;11.60;;;7.63;;
6013;SDS011;3035;49.928;8.410;2022-12-08T10:33:18;13.40;;;8.23;;
6013;SDS011;3035;49.928;8.410;2022-12-08T10:35:47;14.43;;;7.43;;
6013;SDS011;3035;49.928;8.410;2022-12-08T10:38:22;25.07;;;8.67;;
6013;SDS011;3035;49.928;8.410;2022-12-08T10:40:50;13.60;;;8.63;;
6013;SDS011;3035;49.928;8.410;2022-12-08T10:43:21;14.00;;;8.10;;
6013;SDS011;3035;49.928;8.410;2022-12-08T10:45:49;14.30;;;7.70;;
6013;SDS011;3035;49.928;8.410;2022-12-08T10:48:17;19.50;;;7.03;;
6013;SDS011;3035;49.928;8.410;2022-12-08T10:50:53;12.17;;;6.70;;
6013;SDS011;3035;49.928;8.410;2022-12-08T10:53:23;15.87;;;8.43;;
6013;SDS011;3035;49.928;8.410;2022-12-08T10:56:04;11.53;;;7.27;;
6013;SDS011;3035;49.928;8.410;2022-12-08T10:58:34;12.67;;;7.60;;
6013;SDS011;3035;49.928;8.410;2022-12-08T11:01:04;14.10;;;7.00;;
6013;SDS011;3035;49.928;8.410;2022-12-08T11:03:48;10.40;;;6.50;;
6013;SDS011;3035;49.928;8.410;2022-12-08T11:06:18;11.87;;;7.17;;
6013;SDS011;3035;49.928;8.410;2022-12-08T11:08:48;12.87;;;6.90;;
6013;SDS011;3035;49.928;8.410;2022-12-08T11:11:20;9.30;;;6.67;;
6013;SDS011;3035;49.928;8.410;2022-12-08T11:13:49;10.43;;;6.53;;
6013;SDS011;3035;49.928;8.410;2022-12-08T11:16:17;12.70;;;7.20;;
6013;SDS011;3035;49.928;8.410;2022-12-08T11:18:47;12.60;;;6.80;;
6013;SDS011;3035;49.928;8.410;2022-12-08T11:21:15;10.20;;;6.27;;
6013;SDS011;3035;49.928;8.410;2022-12-08T11:23:45;10.23;;;6.43;;
6013;SDS011;3035;49.928;8.410;2022-12-08T11:26:16;8.53;;;5.10;;
6013;SDS011;3035;49.928;8.410;2022-12-08T11:28:53;8.70;;;6.47;;
6013;SDS011;3035;49.928;8.410;2022-12-08T11:31:24;8.90;;;5.97;;
6013;SDS011;3035;49.928;8.410;2022-12-08T11:33:52;15.70;;;6.30;;
6013;SDS011;3035;49.928;8.410;2022-12-08T11:36:22;10.03;;;6.30;;
6013;SDS011;3035;49.928;8.410;2022-12-08T11:38:50;8.67;;;5.57;;
6013;SDS011;3035;49.928;8.410;2022-12-08T11:41:19;11.53;;;6.40;;
6013;SDS011;3035;49.928;8.410;2022-12-08T11:43:49;9.17;;;6.60;;
6013;SDS011;3035;49.928;8.410;2022-12-08T11:46:24;11.33;;;6.40;;
6013;SDS011;3035;49.928;8.410;2022-12-08T11:48:55;11.73;;;6.40;;
6013;SDS011;3035;49.928;8.410;2022-12-08T11:51:28;11.40;;;7.10;;
6013;SDS011;3035;49.928;8.410;2022-12-08T11:54:14;10.93;;;7.47;;
6013;SDS011;3035;49.928;8.410;2022-12-08T11:57:01;9.97;;;5.43;;
6013;SDS011;3035;49.928;8.410;2022-12-08T11:59:31;9.50;;;6.20;;
6013;SDS011;3035;49.928;8.410;2022-12-08T12:02:00;9.07;;;6.13;;
6013;SDS011;3035;49.928;8.410;2022-12-08T12:12:50;3.80;;;3.40;;
6013;SDS011;3035;49.928;8.410;2022-12-08T12:15:30;4.80;;;3.07;;
6013;SDS011;3035;49.928;8.410;2022-12-08T12:18:04;2.93;;;2.60;;
6013;SDS011;3035;49.928;8.410;2022-12-08T12:20:38;3.27;;;2.67;;
6013;SDS011;3035;49.928;8.410;2022-12-08T12:23:21;4.07;;;2.77;;
6013;SDS011;3035;49.928;8.410;2022-12-08T12:25:54;4.20;;;2.80;;
6013;SDS011;3035;49.928;8.410;2022-12-08T12:28:23;2.93;;;2.23;;
6013;SDS011;3035;49.928;8.410;2022-12-08T12:30:56;3.80;;;2.43;;
6013;SDS011;3035;49.928;8.410;2022-12-08T12:33:24;3.83;;;2.50;;
6013;SDS011;3035;49.928;8.410;2022-12-08T12:35:54;3.20;;;2.37;;
6013;SDS011;3035;49.928;8.410;2022-12-08T12:38:23;4.27;;;2.60;;
6013;SDS011;3035;49.928;8.410;2022-12-08T12:40:59;2.50;;;2.17;;
6013;SDS011;3035;49.928;8.410;2022-12-08T12:43:28;2.40;;;2.20;;
6013;SDS011;3035;49.928;8.410;2022-12-08T12:51:54;4.50;;;2.73;;
6013;SDS011;3035;49.928;8.410;2022-12-08T12:54:23;2.80;;;2.60;;
6013;SDS011;3035;49.928;8.410;2022-12-08T12:56:52;4.20;;;2.67;;
6013;SDS011;3035;49.928;8.410;2022-12-08T12:59:31;3.20;;;2.90;;
6013;SDS011;3035;49.928;8.410;2022-12-08T13:01:59;5.43;;;2.70;;
6013;SDS011;3035;49.928;8.410;2022-12-08T13:04:29;5.40;;;3.33;;
6013;SDS011;3035;49.928;8.410;2022-12-08T13:06:58;3.07;;;2.70;;
6013;SDS011;3035;49.928;8.410;2022-12-08T13:09:28;2.70;;;2.33;;
6013;SDS011;3035;49.928;8.410;2022-12-08T13:11:56;6.10;;;2.80;;
6013;SDS011;3035;49.928;8.410;2022-12-08T13:14:25;3.60;;;3.30;;
6013;SDS011;3035;49.928;8.410;2022-12-08T13:16:54;3.70;;;3.07;;
6013;SDS011;3035;49.928;8.410;2022-12-08T13:19:22;2.97;;;2.67;;
6013;SDS011;3035;49.928;8.410;2022-12-08T13:21:50;2.43;;;2.10;;
6013;SDS011;3035;49.928;8.410;2022-12-08T13:24:28;3.03;;;2.50;;
6013;SDS011;3035;49.928;8.410;2022-12-08T13:30:38;5.10;;;2.40;;
6013;SDS011;3035;49.928;8.410;2022-12-08T13:32:53;7.13;;;2.67;;
6013;SDS011;3035;49.928;8.410;2022-12-08T13:35:22;2.90;;;2.57;;
6013;SDS011;3035;49.928;8.410;2022-12-08T13:37:51;3.30;;;2.47;;
6013;SDS011;3035;49.928;8.410;2022-12-08T13:40:21;2.43;;;2.23;;
6013;SDS011;3035;49.928;8.410;2022-12-08T13:42:49;4.70;;;2.67;;
6013;SDS011;3035;49.928;8.410;2022-12-08T13:45:20;4.00;;;2.83;;
6013;SDS011;3035;49.928;8.410;2022-12-08T13:47:51;4.53;;;2.57;;
6013;SDS011;3035;49.928;8.410;2022-12-08T13:50:21;8.23;;;3.03;;
6013;SDS011;3035;49.928;8.410;2022-12-08T13:52:54;3.70;;;2.97;;
6013;SDS011;3035;49.928;8.410;2022-12-08T13:55:26;3.43;;;2.73;;
6013;SDS011;3035;49.928;8.410;2022-12-08T13:57:56;6.93;;;2.80;;
6013;SDS011;3035;49.928;8.410;2022-12-08T14:00:24;4.50;;;2.70;;
6013;SDS011;3035;49.928;8.410;2022-12-08T14:02:55;9.83;;;4.80;;
6013;SDS011;3035;49.928;8.410;2022-12-08T14:05:24;17.07;;;7.40;;
6013;SDS011;3035;49.928;8.410;2022-12-08T14:07:53;9.60;;;5.27;;
6013;SDS011;3035;49.928;8.410;2022-12-08T14:10:22;12.87;;;3.30;;
6013;SDS011;3035;49.928;8.410;2022-12-08T14:12:56;3.90;;;2.93;;
6013;SDS011;3035;49.928;8.410;2022-12-08T14:15:25;2.90;;;2.60;;
6013;SDS011;3035;49.928;8.410;2022-12-08T14:17:55;4.50;;;3.33;;
6013;SDS011;3035;49.928;8.410;2022-12-08T14:20:24;4.60;;;3.37;;
6013;SDS011;3035;49.928;8.410;2022-12-08T14:22:52;4.87;;;2.90;;
6013;SDS011;3035;49.928;8.410;2022-12-08T14:25:20;5.60;;;3.00;;
6013;SDS011;3035;49.928;8.410;2022-12-08T14:27:48;3.40;;;2.27;;
6013;SDS011;3035;49.928;8.410;2022-12-08T14:30:19;3.23;;;2.27;;
6013;SDS011;3035;49.928;8.410;2022-12-08T14:32:47;3.33;;;2.93;;
6013;SDS011;3035;49.928;8.410;2022-12-08T14:35:19;5.07;;;3.17;;
6013;SDS011;3035;49.928;8.410;2022-12-08T14:37:47;3.07;;;2.87;;
6013;SDS011;3035;49.928;8.410;2022-12-08T14:43:18;3.70;;;2.83;;
6013;SDS011;3035;49.928;8.410;2022-12-08T14:45:48;4.33;;;2.50;;
6013;SDS011;3035;49.928;8.410;2022-12-08T14:48:18;3.30;;;3.00;;
6013;SDS011;3035;49.928;8.410;2022-12-08T14:51:06;4.27;;;3.17;;
6013;SDS011;3035;49.928;8.410;2022-12-08T14:53:56;4.90;;;3.30;;
6013;SDS011;3035;49.928;8.410;2022-12-08T14:56:41;4.37;;;2.97;;
6013;SDS011;3035;49.928;8.410;2022-12-08T14:59:23;3.10;;;2.70;;
6013;SDS011;3035;49.928;8.410;2022-12-08T15:04:54;4.50;;;2.97;;
6013;SDS011;3035;49.928;8.410;2022-12-08T15:07:28;8.67;;;2.80;;
6013;SDS011;3035;49.928;8.410;2022-12-08T15:12:38;3.20;;;2.63;;
6013;SDS011;3035;49.928;8.410;2022-12-08T15:15:14;3.77;;;2.57;;
6013;SDS011;3035;49.928;8.410;2022-12-08T15:17:43;3.50;;;2.43;;
6013;SDS011;3035;49.928;8.410;2022-12-08T15:22:54;3.20;;;2.90;;
6013;SDS011;3035;49.928;8.410;2022-12-08T15:25:22;4.30;;;3.50;;
6013;SDS011;3035;49.928;8.410;2022-12-08T15:27:52;5.30;;;3.80;;
6013;SDS011;3035;49.928;8.410;2022-12-08T15:30:20;6.40;;;4.73;;
6013;SDS011;3035;49.928;8.410;2022-12-08T15:32:49;6.20;;;4.50;;
6013;SDS011;3035;49.928;8.410;2022-12-08T15:35:18;10.57;;;5.90;;
6013;SDS011;3035;49.928;8.410;2022-12-08T15:37:47;9.90;;;6.20;;
6013;SDS011;3035;49.928;8.410;2022-12-08T15:40:17;12.57;;;6.87;;
6013;SDS011;3035;49.928;8.410;2022-12-08T15:42:44;12.87;;;6.03;;
6013;SDS011;3035;49.928;8.410;2022-12-08T15:45:13;12.83;;;6.57;;
6013;SDS011;3035;49.928;8.410;2022-12-08T15:47:42;11.23;;;6.23;;
6013;SDS011;3035;49.928;8.410;2022-12-08T15:50:14;11.97;;;6.73;;
6013;SDS011;3035;49.928;8.410;2022-12-08T15:52:42;13.83;;;6.93;;
6013;SDS011;3035;49.928;8.410;2022-12-08T15:55:11;14.23;;;6.67;;
6013;SDS011;3035;49.928;8.410;2022-12-08T15:57:41;8.17;;;5.93;;
6013;SDS011;3035;49.928;8.410;2022-12-08T16:00:23;14.70;;;6.70;;
6013;SDS011;3035;49.928;8.410;2022-12-08T16:02:51;14.83;;;7.70;;
6013;SDS011;3035;49.928;8.410;2022-12-08T16:05:20;13.00;;;7.03;;
6013;SDS011;3035;49.928;8.410;2022-12-08T16:07:48;10.97;;;6.00;;